Stewardson, Illinois
Current Conditions -  °F | °C
As of 4:35 PM on Wednesday 22 Oct 2014 (Local Time) from K1H2 Reporting Station
Clear Clear  
Wind Chill: 61°   Ceiling: Unl
Heat Index: 61°   Visibility: 10mi
Dew Point: 34°   Wind: 0mph
Humidity: 36%   Direction: NA
Pressure: 30.25"   Gusts: NA
Location:  39.26°N, 88.63°W
Report Text: K1H2 222135Z AUTO 00000KT 10SM CLR 16/01 A3025 RMK AO2 T01620009
Loading
Personal Weather Stations






























Interactive Weather Map
Tropical Storm Tracking
New forecast layout! Learn more

10-Day Weather Forecast

Advertisements
Track Severe Weather on mobile